Time;durP1;ratioP1;P1;durP2;ratioP2;P2;SDS_P1;SDS_P2;PMS_P1;PMS_P2;Temp;Humidity;BMP_temperature;BMP_pressure;BME280_temperature;BME280_humidity;BME280_pressure;Samples;Min_cycle;Max_cycle;Signal;HPM_P1;HPM_P2
2022/04/16 00:02:01;;;;;;;2.80;2.38;;;11.30;99.90;;;;;;5113940;28;20616;-74
2022/04/16 00:04:30;;;;;;;2.58;2.38;;;12.80;99.90;;;;;;5116813;28;20046;-74
2022/04/16 00:06:57;;;;;;;2.75;2.55;;;11.10;99.90;;;;;;5115321;28;20020;-74
2022/04/16 00:09:23;;;;;;;4.70;3.08;;;11.10;99.90;;;;;;5113218;28;20039;-74
2022/04/16 00:11:49;;;;;;;2.95;2.70;;;11.00;99.90;;;;;;5111989;28;20016;-74
2022/04/16 00:14:15;;;;;;;4.65;3.28;;;10.90;99.90;;;;;;5112287;28;20095;-74
2022/04/16 00:16:42;;;;;;;3.35;3.05;;;10.90;99.90;;;;;;5114452;28;20035;-74
2022/04/16 00:19:09;;;;;;;5.32;3.55;;;10.80;99.90;;;;;;5112073;27;20387;-74
2022/04/16 00:21:35;;;;;;;6.50;3.85;;;10.80;99.90;;;;;;5112807;28;20016;-74
2022/04/16 00:24:02;;;;;;;4.68;3.53;;;10.80;99.90;;;;;;5112324;27;20043;-74
2022/04/16 00:26:28;;;;;;;4.80;2.95;;;10.80;99.90;;;;;;5112497;28;20020;-74
2022/04/16 00:28:54;;;;;;;4.70;3.03;;;10.70;99.90;;;;;;5111614;28;20031;-74
2022/04/16 00:31:21;;;;;;;6.43;3.42;;;10.70;99.90;;;;;;5112016;28;20019;-74
2022/04/16 00:33:47;;;;;;;6.22;3.35;;;10.70;99.90;;;;;;5111906;28;20027;-74
2022/04/16 00:36:15;;;;;;;3.60;3.03;;;10.70;99.90;;;;;;5111449;28;20122;-74
2022/04/16 00:38:42;;;;;;;5.90;3.28;;;10.60;99.90;;;;;;5111959;28;20038;-74
2022/04/16 00:41:08;;;;;;;4.50;3.33;;;10.50;99.90;;;;;;5111746;28;20027;-74
2022/04/16 00:43:34;;;;;;;4.60;4.10;;;10.40;99.90;;;;;;5114991;28;20123;-74
2022/04/16 00:46:00;;;;;;;4.88;3.42;;;10.30;99.90;;;;;;5115032;28;20062;-74
2022/04/16 00:48:26;;;;;;;6.40;3.40;;;10.30;99.90;;;;;;5111427;28;20031;-74
2022/04/16 00:50:54;;;;;;;4.57;3.30;;;10.30;99.90;;;;;;5111997;28;20016;-74
2022/04/16 00:53:21;;;;;;;7.97;4.30;;;10.20;99.90;;;;;;5115033;28;20028;-74
2022/04/16 00:55:47;;;;;;;5.55;3.58;;;10.20;99.90;;;;;;5113245;28;20055;-74
2022/04/16 00:58:13;;;;;;;6.18;3.60;;;10.10;99.90;;;;;;5112945;28;20027;-73
2022/04/16 01:00:38;;;;;;;7.90;4.32;;;10.10;99.90;;;;;;5111806;28;20020;-74
2022/04/16 01:03:06;;;;;;;6.70;3.90;;;10.10;99.90;;;;;;5112175;28;20535;-74
2022/04/16 01:05:31;;;;;;;5.20;4.22;;;10.00;99.90;;;;;;5112972;28;20020;-74
2022/04/16 01:08:02;;;;;;;7.85;4.07;;;9.80;99.90;;;;;;5111129;28;20027;-74
2022/04/16 01:10:29;;;;;;;7.45;4.07;;;9.70;99.90;;;;;;5111307;28;20031;-74
2022/04/16 01:12:57;;;;;;;10.70;4.97;;;9.60;99.90;;;;;;5111762;28;20044;-74
2022/04/16 01:15:25;;;;;;;4.75;3.63;;;9.50;99.90;;;;;;5111164;28;20072;-74
2022/04/16 01:17:51;;;;;;;5.70;4.25;;;9.50;99.90;;;;;;5111674;28;20024;-74
2022/04/16 01:20:18;;;;;;;6.95;4.15;;;9.40;99.90;;;;;;5111991;28;20019;-74
2022/04/16 01:22:46;;;;;;;7.35;3.80;;;9.40;99.90;;;;;;5112046;28;20028;-74
2022/04/16 01:25:12;;;;;;;8.25;4.05;;;9.20;99.90;;;;;;5111313;28;20093;-74
2022/04/16 01:27:43;;;;;;;6.03;3.50;;;9.10;99.90;;;;;;5111604;28;20024;-74
2022/04/16 01:30:11;;;;;;;7.85;3.72;;;9.00;99.90;;;;;;5111583;28;20029;-74
2022/04/16 01:32:37;;;;;;;8.20;4.43;;;9.00;99.90;;;;;;5110729;28;20088;-74
2022/04/16 01:35:04;;;;;;;6.13;4.00;;;9.00;99.90;;;;;;5111241;28;20020;-74
2022/04/16 01:37:34;;;;;;;4.30;3.80;;;8.90;99.90;;;;;;5111250;28;20387;-74
2022/04/16 01:40:01;;;;;;;7.25;4.30;;;8.90;99.90;;;;;;5110748;28;20047;-74
2022/04/16 01:42:29;;;;;;;6.10;4.35;;;8.90;99.90;;;;;;5111365;28;20392;-74
2022/04/16 01:44:56;;;;;;;6.63;3.47;;;8.90;99.90;;;;;;5112049;28;20480;-74
2022/04/16 01:47:22;;;;;;;6.50;3.40;;;8.80;99.90;;;;;;5111893;28;20438;-74
2022/04/16 01:49:48;;;;;;;8.82;3.47;;;8.70;99.90;;;;;;5111634;28;20099;-74
2022/04/16 01:52:14;;;;;;;4.70;3.53;;;8.60;99.90;;;;;;5112381;28;20024;-74
2022/04/16 01:54:41;;;;;;;6.70;3.80;;;8.60;99.90;;;;;;5112086;28;20034;-74
2022/04/16 01:57:07;;;;;;;4.55;2.90;;;8.80;99.90;;;;;;5111606;28;20032;-74
2022/04/16 01:59:32;;;;;;;5.20;3.38;;;8.80;99.90;;;;;;5111623;28;20023;-74
2022/04/16 02:01:59;;;;;;;4.40;3.38;;;8.70;99.90;;;;;;5111195;28;20106;-74
2022/04/16 02:04:26;;;;;;;4.20;3.30;;;8.70;99.90;;;;;;5110891;28;20035;-74
2022/04/16 02:06:52;;;;;;;6.03;3.47;;;8.50;99.90;;;;;;5111641;28;20018;-74
2022/04/16 02:09:18;;;;;;;5.47;3.60;;;8.40;99.90;;;;;;5110931;28;20020;-74
2022/04/16 02:11:44;;;;;;;4.72;3.35;;;8.30;99.90;;;;;;5113290;28;20036;-74
2022/04/16 02:14:09;;;;;;;4.00;3.30;;;8.30;99.90;;;;;;5115339;28;20089;-74
2022/04/16 02:16:35;;;;;;;3.47;3.08;;;8.10;99.90;;;;;;5115925;28;20030;-74
2022/04/16 02:19:01;;;;;;;3.67;2.80;;;8.10;99.90;;;;;;5116071;28;20027;-74
2022/04/16 02:21:27;;;;;;;4.82;3.45;;;8.20;99.90;;;;;;5115132;28;20022;-74
2022/04/16 02:23:54;;;;;;;3.85;3.00;;;8.20;99.90;;;;;;5115418;28;20031;-74
2022/04/16 02:26:22;;;;;;;7.45;3.17;;;8.20;99.90;;;;;;5114348;28;20075;-74
2022/04/16 02:28:48;;;;;;;5.07;3.47;;;8.20;99.90;;;;;;5115612;28;20028;-74
2022/04/16 02:31:14;;;;;;;4.80;3.00;;;8.10;99.90;;;;;;5115232;28;20046;-73
2022/04/16 02:33:40;;;;;;;4.15;3.05;;;8.00;99.90;;;;;;5113736;28;20038;-74
2022/04/16 02:36:07;;;;;;;5.85;2.80;;;7.80;99.90;;;;;;5114902;28;20015;-74
2022/04/16 02:38:33;;;;;;;7.20;3.28;;;7.80;99.90;;;;;;5115394;28;20104;-74
2022/04/16 02:40:59;;;;;;;5.25;2.58;;;7.80;99.90;;;;;;5114508;28;20116;-74
2022/04/16 02:43:25;;;;;;;3.80;2.90;;;7.70;99.90;;;;;;5115405;28;20102;-74
2022/04/16 02:48:35;;;;;;;6.25;2.97;;;7.60;99.90;;;;;;5114986;28;20035;-74
2022/04/16 02:51:02;;;;;;;5.68;3.38;;;7.60;99.90;;;;;;5115137;28;20027;-74
2022/04/16 02:53:29;;;;;;;4.40;2.88;;;7.60;99.90;;;;;;5114913;28;20027;-74
2022/04/16 02:55:56;;;;;;;7.13;3.22;;;7.60;99.90;;;;;;5114436;28;20050;-74
2022/04/16 02:58:22;;;;;;;2.88;2.55;;;7.50;99.90;;;;;;5113487;28;20024;-74
2022/04/16 03:00:48;;;;;;;5.05;3.50;;;7.50;99.90;;;;;;5114548;28;20019;-74
2022/04/16 03:03:14;;;;;;;5.13;3.35;;;7.40;99.90;;;;;;5114364;27;20039;-74
2022/04/16 03:05:41;;;;;;;4.13;3.13;;;7.40;99.90;;;;;;5114287;28;20020;-74
2022/04/16 03:08:07;;;;;;;5.43;2.97;;;7.30;99.90;;;;;;5114384;28;20011;-74
2022/04/16 03:10:34;;;;;;;5.15;3.05;;;7.30;99.90;;;;;;5113888;27;20491;-74
2022/04/16 03:13:01;;;;;;;5.03;2.72;;;7.20;99.90;;;;;;5114384;28;20186;-74
2022/04/16 03:18:11;;;;;;;4.80;3.13;;;7.10;99.90;;;;;;5113979;28;20027;-74
2022/04/16 03:20:39;;;;;;;5.90;3.70;;;7.00;99.90;;;;;;5112613;28;20388;-74
2022/04/16 03:23:05;;;;;;;4.65;3.22;;;6.80;99.90;;;;;;5113594;28;20081;-75
2022/04/16 03:25:31;;;;;;;5.65;2.72;;;6.80;99.90;;;;;;5113712;28;20107;-74
2022/04/16 03:27:57;;;;;;;3.20;2.90;;;6.90;99.90;;;;;;5114413;28;20115;-74
2022/04/16 03:30:24;;;;;;;5.10;3.47;;;6.90;99.90;;;;;;5114273;28;20019;-74
2022/04/16 03:32:51;;;;;;;7.03;3.15;;;7.00;99.90;;;;;;5114109;28;20079;-74
2022/04/16 03:35:21;;;;;;;5.53;3.03;;;6.90;99.90;;;;;;5115048;28;20022;-74
2022/04/16 03:37:47;;;;;;;5.07;3.10;;;6.80;99.90;;;;;;5115250;28;20041;-74
2022/04/16 03:40:13;;;;;;;5.07;3.00;;;6.80;99.90;;;;;;5115207;28;20011;-74
2022/04/16 03:42:45;;;;;;;7.57;3.83;;;6.80;99.90;;;;;;5114248;28;20058;-74
2022/04/16 03:45:20;;;;;;;6.22;2.83;;;6.70;99.90;;;;;;5115952;28;20030;-74
2022/04/16 03:47:50;;;;;;;5.43;2.88;;;6.80;99.90;;;;;;5118401;27;20047;-75
2022/04/16 03:50:17;;;;;;;5.15;3.08;;;6.80;99.90;;;;;;5120172;28;20024;-74
2022/04/16 03:52:43;;;;;;;3.90;3.25;;;6.70;99.90;;;;;;5113541;28;20084;-74
2022/04/16 04:00:47;;;;;;;4.70;3.25;;;6.60;99.90;;;;;;5113470;28;20035;-74
2022/04/16 04:03:14;;;;;;;4.93;2.80;;;6.50;99.90;;;;;;5113575;28;20302;-74
2022/04/16 04:05:43;;;;;;;3.90;3.33;;;6.50;99.90;;;;;;5112776;28;20030;-74
2022/04/16 04:08:09;;;;;;;7.28;3.00;;;6.40;99.90;;;;;;5113617;28;20023;-74
2022/04/16 04:10:36;;;;;;;6.00;2.90;;;6.40;99.90;;;;;;5113615;28;20422;-74
2022/04/16 04:13:03;;;;;;;4.32;2.88;;;6.40;99.90;;;;;;5112670;28;20411;-74
2022/04/16 04:15:29;;;;;;;3.30;2.45;;;6.40;99.90;;;;;;5112529;28;20487;-74
2022/04/16 04:17:56;;;;;;;5.45;3.13;;;6.40;99.90;;;;;;5113759;28;20015;-74
2022/04/16 04:20:22;;;;;;;5.10;3.38;;;6.40;99.90;;;;;;5114005;28;20551;-74
2022/04/16 04:22:47;;;;;;;9.52;4.43;;;6.40;99.90;;;;;;5112297;28;20122;-74
2022/04/16 04:25:13;;;;;;;7.97;3.42;;;6.30;99.90;;;;;;5111904;28;20070;-74
2022/04/16 04:27:38;;;;;;;4.07;2.92;;;6.30;99.90;;;;;;5113592;28;20452;-74
2022/04/16 04:30:05;;;;;;;3.47;2.65;;;6.30;99.90;;;;;;5113175;28;20031;-74
2022/04/16 04:32:32;;;;;;;5.88;3.75;;;6.30;99.90;;;;;;5113300;28;20024;-74
2022/04/16 04:34:57;;;;;;;8.13;3.38;;;6.30;99.90;;;;;;5113256;28;20030;-75
2022/04/16 04:37:24;;;;;;;5.85;3.50;;;6.30;99.90;;;;;;5112514;28;20110;-74
2022/04/16 04:39:50;;;;;;;3.10;2.63;;;6.30;99.90;;;;;;5113075;28;20034;-74
2022/04/16 04:42:27;;;;;;;5.18;2.88;;;6.40;99.90;;;;;;5112952;28;20028;-74
2022/04/16 04:44:53;;;;;;;5.05;3.38;;;6.30;99.90;;;;;;5114750;28;20032;-74
2022/04/16 04:47:19;;;;;;;5.15;2.90;;;6.40;99.90;;;;;;5113455;28;20031;-74
2022/04/16 04:49:45;;;;;;;3.80;3.22;;;6.40;99.90;;;;;;5114347;28;20027;-74
2022/04/16 04:52:10;;;;;;;4.28;3.25;;;6.40;99.90;;;;;;5113768;28;20031;-74
2022/04/16 04:54:36;;;;;;;4.13;3.08;;;6.40;99.90;;;;;;5112773;28;20027;-74
2022/04/16 04:57:05;;;;;;;6.38;4.28;;;6.40;99.90;;;;;;5111535;28;20049;-74
2022/04/16 04:59:30;;;;;;;4.30;3.38;;;6.40;99.90;;;;;;5114432;28;20024;-74
2022/04/16 05:01:56;;;;;;;4.35;3.10;;;6.40;99.90;;;;;;5112119;28;20038;-74
2022/04/16 05:04:22;;;;;;;5.15;2.95;;;6.40;99.90;;;;;;5113489;28;20070;-74
2022/04/16 05:06:48;;;;;;;4.95;3.30;;;6.40;99.90;;;;;;5113782;28;20030;-74
2022/04/16 05:09:13;;;;;;;12.23;3.40;;;6.40;99.90;;;;;;5110337;28;20399;-74
2022/04/16 05:11:39;;;;;;;5.10;3.25;;;6.30;99.90;;;;;;5111885;28;20027;-74
2022/04/16 05:14:05;;;;;;;4.20;2.90;;;6.30;99.90;;;;;;5111661;28;20122;-74
2022/04/16 05:16:30;;;;;;;4.00;2.88;;;6.30;99.90;;;;;;5111604;28;20035;-74
2022/04/16 05:18:56;;;;;;;3.88;3.28;;;6.30;99.90;;;;;;5112385;28;20024;-74
2022/04/16 05:21:22;;;;;;;5.47;2.97;;;6.30;99.90;;;;;;5111210;28;20020;-74
2022/04/16 05:23:47;;;;;;;4.10;3.20;;;6.30;99.90;;;;;;5112327;28;20028;-74
2022/04/16 05:26:13;;;;;;;3.70;2.88;;;6.40;99.90;;;;;;5112783;28;20148;-74
2022/04/16 05:28:39;;;;;;;3.92;3.15;;;6.50;99.90;;;;;;5113231;28;20051;-74
2022/04/16 05:31:07;;;;;;;4.32;3.00;;;6.60;99.90;;;;;;5112485;28;20028;-74
2022/04/16 05:36:18;;;;;;;4.75;2.40;;;6.70;99.90;;;;;;5112583;28;20057;-74
2022/04/16 05:38:44;;;;;;;4.97;2.97;;;6.70;99.90;;;;;;5113170;28;20028;-74
2022/04/16 05:41:10;;;;;;;3.35;2.47;;;6.80;99.90;;;;;;5110551;28;20031;-74
2022/04/16 05:43:36;;;;;;;4.38;2.85;;;7.00;99.90;;;;;;5111978;28;20114;-74
2022/04/16 05:46:02;;;;;;;5.47;2.85;;;7.20;99.90;;;;;;5115152;28;20045;-74
2022/04/16 05:48:28;;;;;;;6.38;2.95;;;7.10;99.90;;;;;;5115891;28;20112;-74
2022/04/16 05:50:57;;;;;;;6.10;3.22;;;7.10;99.90;;;;;;5117354;28;20031;-74
2022/04/16 05:53:24;;;;;;;5.20;2.58;;;9.40;99.90;;;;;;5117252;27;20015;-74
2022/04/16 05:55:53;;;;;;;7.80;2.92;;;7.00;99.90;;;;;;5118042;28;20028;-74
2022/04/16 05:58:19;;;;;;;3.67;2.95;;;6.90;99.90;;;;;;5116895;28;20020;-74
2022/04/16 06:00:45;;;;;;;4.35;3.13;;;6.90;99.90;;;;;;5116911;28;20112;-74
2022/04/16 06:03:11;;;;;;;4.03;2.75;;;6.80;99.90;;;;;;5116033;27;20044;-74
2022/04/16 06:05:36;;;;;;;3.10;2.80;;;6.90;99.90;;;;;;5115451;28;20015;-74
2022/04/16 06:08:03;;;;;;;10.65;3.17;;;6.80;99.90;;;;;;5116584;28;20042;-74
2022/04/16 06:10:28;;;;;;;3.33;2.70;;;6.80;99.90;;;;;;5116364;28;20039;-74
2022/04/16 06:12:54;;;;;;;4.20;3.00;;;6.90;99.90;;;;;;5115466;28;20040;-74
2022/04/16 06:15:20;;;;;;;6.35;3.25;;;6.90;99.90;;;;;;5115430;28;20028;-74
2022/04/16 06:17:46;;;;;;;4.18;3.78;;;7.00;99.90;;;;;;5115878;28;20055;-74
2022/04/16 06:20:12;;;;;;;5.35;2.40;;;7.00;99.90;;;;;;5114539;28;20237;-74
2022/04/16 06:22:39;;;;;;;5.82;3.13;;;7.20;99.90;;;;;;5115802;28;20020;-74
2022/04/16 06:25:06;;;;;;;3.53;2.80;;;7.30;99.90;;;;;;5114407;28;20385;-74
2022/04/16 06:27:31;;;;;;;4.85;3.03;;;7.30;99.90;;;;;;5115953;28;20089;-74
2022/04/16 06:29:57;;;;;;;4.03;3.17;;;7.50;99.90;;;;;;5118585;28;20027;-74
2022/04/16 06:32:22;;;;;;;3.55;2.53;;;7.60;99.90;;;;;;5118917;28;20403;-74
2022/04/16 06:34:56;;;;;;;4.10;3.05;;;7.80;99.90;;;;;;5131576;28;20011;-74
2022/04/16 06:37:21;;;;;;;5.00;3.42;;;7.80;99.90;;;;;;5125980;28;20027;-74
2022/04/16 06:39:47;;;;;;;5.80;4.05;;;7.80;99.90;;;;;;5128615;28;20027;-74
2022/04/16 06:42:22;;;;;;;3.83;2.60;;;7.90;99.90;;;;;;5127837;28;20027;-73
2022/04/16 06:44:47;;;;;;;3.75;2.70;;;8.10;99.90;;;;;;5130430;28;20074;-73
2022/04/16 06:47:13;;;;;;;4.03;3.05;;;8.10;99.90;;;;;;5129498;28;20267;-74
2022/04/16 06:49:38;;;;;;;4.30;3.45;;;8.30;99.90;;;;;;5128879;28;20023;-74
2022/04/16 06:52:05;;;;;;;4.30;2.97;;;8.70;99.90;;;;;;5129991;28;20028;-75
2022/04/16 06:54:30;;;;;;;4.70;3.25;;;8.60;99.90;;;;;;5118908;28;20019;-73
2022/04/16 06:56:56;;;;;;;7.50;3.80;;;8.70;99.90;;;;;;5115824;28;20027;-74
2022/04/16 06:59:21;;;;;;;3.47;2.83;;;8.60;99.90;;;;;;5116152;28;20072;-74
2022/04/16 07:01:47;;;;;;;5.10;3.22;;;8.60;99.90;;;;;;5116105;28;20028;-74
2022/04/16 07:04:13;;;;;;;5.25;2.80;;;8.60;99.90;;;;;;5114898;28;20060;-74
2022/04/16 07:06:42;;;;;;;5.53;3.15;;;8.60;99.90;;;;;;5115132;28;20112;-74
2022/04/16 07:09:10;;;;;;;4.90;3.35;;;8.70;99.90;;;;;;5116221;28;20107;-74
2022/04/16 07:11:36;;;;;;;4.43;3.35;;;8.80;99.90;;;;;;5114707;28;20108;-74
2022/04/16 07:14:01;;;;;;;5.70;3.20;;;8.50;99.90;;;;;;5115040;27;20051;-74
2022/04/16 07:16:27;;;;;;;4.43;3.22;;;8.80;99.90;;;;;;5114433;28;20380;-74
2022/04/16 07:18:53;;;;;;;6.38;3.47;;;8.80;99.90;;;;;;5114218;28;20039;-74
2022/04/16 07:21:18;;;;;;;5.65;3.92;;;9.10;99.90;;;;;;5112505;28;20020;-74
2022/04/16 07:23:44;;;;;;;5.15;3.20;;;9.20;99.90;;;;;;5115858;28;20035;-74
2022/04/16 07:26:10;;;;;;;5.32;3.10;;;9.10;99.90;;;;;;5113777;28;20027;-74
2022/04/16 07:28:35;;;;;;;4.43;3.50;;;9.20;99.90;;;;;;5114648;28;20047;-74
2022/04/16 07:31:01;;;;;;;4.53;3.63;;;9.20;99.90;;;;;;5115972;28;20098;-74
2022/04/16 07:33:31;;;;;;;3.78;3.35;;;9.40;99.90;;;;;;5114391;28;20039;-74
2022/04/16 07:35:57;;;;;;;4.70;3.28;;;9.60;99.90;;;;;;5114090;28;20490;-74
2022/04/16 07:38:23;;;;;;;4.25;3.53;;;9.70;99.90;;;;;;5114206;28;20028;-74
2022/04/16 07:40:49;;;;;;;6.03;3.47;;;10.40;99.90;;;;;;5113349;28;20019;-74
2022/04/16 07:43:15;;;;;;;3.83;3.53;;;10.60;99.90;;;;;;5114417;28;20590;-74
2022/04/16 07:45:41;;;;;;;10.05;3.65;;;10.50;99.90;;;;;;5115942;28;20043;-74
2022/04/16 07:48:07;;;;;;;5.10;3.28;;;10.40;99.90;;;;;;5117105;28;20039;-74
2022/04/16 07:50:33;;;;;;;4.10;3.30;;;10.50;99.90;;;;;;5117454;28;20019;-74
2022/04/16 07:52:59;;;;;;;8.90;3.42;;;10.30;99.90;;;;;;5119513;28;20031;-73
2022/04/16 07:55:28;;;;;;;6.00;3.40;;;10.30;99.90;;;;;;5116611;28;20476;-74
2022/04/16 07:57:54;;;;;;;5.32;3.70;;;10.30;99.90;;;;;;5115616;28;20020;-75
2022/04/16 08:00:20;;;;;;;4.00;3.17;;;9.90;99.90;;;;;;5113019;28;20395;-74
2022/04/16 08:02:46;;;;;;;6.95;3.47;;;10.70;99.90;;;;;;5114559;28;20024;-74
2022/04/16 08:05:12;;;;;;;4.95;3.67;;;10.80;99.90;;;;;;5113577;28;20622;-74
2022/04/16 08:07:37;;;;;;;8.35;4.72;;;11.00;99.90;;;;;;5114189;28;20024;-74
2022/04/16 08:10:04;;;;;;;6.43;4.07;;;11.30;99.90;;;;;;5115007;28;20028;-74
2022/04/16 08:12:29;;;;;;;4.88;3.58;;;11.30;99.90;;;;;;5114326;28;20051;-74
2022/04/16 08:14:55;;;;;;;5.85;3.33;;;11.20;99.90;;;;;;5113612;28;20105;-74
2022/04/16 08:17:21;;;;;;;11.82;3.97;;;11.60;99.90;;;;;;5113324;28;20026;-74
2022/04/16 08:19:47;;;;;;;6.60;3.72;;;12.00;99.90;;;;;;5111733;28;20100;-74
2022/04/16 08:22:18;;;;;;;4.85;3.50;;;11.90;99.90;;;;;;5113948;28;20073;-74
2022/04/16 08:27:31;;;;;;;5.80;3.38;;;12.30;99.90;;;;;;5113152;28;20039;-74
2022/04/16 08:29:57;;;;;;;6.32;3.88;;;12.20;99.90;;;;;;5114157;28;20031;-74
2022/04/16 08:32:23;;;;;;;4.60;3.70;;;12.60;99.90;;;;;;5112529;28;20016;-74
2022/04/16 08:34:49;;;;;;;7.97;4.53;;;13.00;99.90;;;;;;5112775;28;20016;-74
2022/04/16 08:37:14;;;;;;;5.95;3.58;;;12.90;99.90;;;;;;5112326;28;20031;-74
2022/04/16 08:39:40;;;;;;;4.35;3.85;;;12.90;99.90;;;;;;5112243;28;20103;-75
2022/04/16 08:42:06;;;;;;;6.25;3.90;;;12.90;99.90;;;;;;5112027;28;20379;-74
2022/04/16 08:44:32;;;;;;;5.85;4.28;;;12.40;99.90;;;;;;5111859;28;20058;-74
2022/04/16 08:46:58;;;;;;;5.93;4.20;;;13.50;99.90;;;;;;5111450;28;20370;-74
2022/04/16 08:49:25;;;;;;;6.55;4.68;;;13.80;99.90;;;;;;5112307;28;20020;-74
2022/04/16 08:51:51;;;;;;;6.15;4.00;;;13.80;99.90;;;;;;5113250;28;20176;-74
2022/04/16 08:54:17;;;;;;;9.50;5.13;;;13.50;99.90;;;;;;5111986;28;20051;-74
2022/04/16 08:56:42;;;;;;;4.78;3.83;;;12.90;99.90;;;;;;5113461;28;20070;-74
2022/04/16 08:59:09;;;;;;;6.85;4.57;;;13.10;99.90;;;;;;5114083;28;20024;-74
2022/04/16 09:01:34;;;;;;;7.57;4.20;;;12.60;99.90;;;;;;5112033;28;20031;-74
2022/04/16 09:04:00;;;;;;;7.57;4.68;;;12.60;99.90;;;;;;5114084;28;20036;-74
2022/04/16 09:06:27;;;;;;;5.78;4.88;;;13.00;99.90;;;;;;5112341;28;20379;-74
2022/04/16 09:08:54;;;;;;;4.82;4.32;;;12.90;99.90;;;;;;5113093;28;20033;-74
2022/04/16 09:11:26;;;;;;;10.23;5.05;;;12.90;99.90;;;;;;5112867;28;20091;-74
2022/04/16 09:13:55;;;;;;;6.20;3.97;;;13.20;99.90;;;;;;5112052;28;20144;-75
2022/04/16 09:16:23;;;;;;;5.45;3.67;;;13.10;99.90;;;;;;5111792;28;20028;-74
2022/04/16 09:18:50;;;;;;;8.77;4.32;;;12.80;99.90;;;;;;5111686;28;20027;-74
2022/04/16 09:21:16;;;;;;;7.35;4.43;;;12.50;99.90;;;;;;5113626;28;20432;-74
2022/04/16 09:23:47;;;;;;;6.07;3.63;;;12.70;99.90;;;;;;5113182;28;20078;-74
2022/04/16 09:26:30;;;;;;;5.43;4.00;;;13.20;99.90;;;;;;5114513;28;20467;-74
2022/04/16 09:28:56;;;;;;;6.82;4.07;;;13.20;99.90;;;;;;5114615;28;20541;-74
2022/04/16 09:31:28;;;;;;;5.30;3.95;;;13.20;99.90;;;;;;5116492;28;20020;-74
2022/04/16 09:33:55;;;;;;;5.80;4.18;;;13.40;99.90;;;;;;5115410;28;20023;-74
2022/04/16 09:36:25;;;;;;;10.05;5.13;;;13.60;99.90;;;;;;5115013;28;20547;-74
2022/04/16 09:39:08;;;;;;;5.30;3.72;;;13.50;99.90;;;;;;5112990;28;20102;-74
2022/04/16 09:41:35;;;;;;;6.93;4.20;;;13.20;99.90;;;;;;5113809;28;20145;-75
2022/04/16 09:44:02;;;;;;;6.35;4.10;;;13.20;99.90;;;;;;5113255;28;20038;-74
2022/04/16 09:46:30;;;;;;;6.20;4.45;;;13.30;99.90;;;;;;5113321;28;20016;-74
2022/04/16 09:49:02;;;;;;;6.47;4.40;;;13.60;99.90;;;;;;5115026;28;20027;-80
2022/04/16 09:51:32;;;;;;;6.90;4.32;;;13.70;99.90;;;;;;5114516;28;20024;-74
2022/04/16 09:53:58;;;;;;;6.68;4.32;;;14.70;99.90;;;;;;5110144;28;20109;-74
2022/04/16 09:56:27;;;;;;;7.40;4.50;;;14.00;99.90;;;;;;5111583;28;20099;-74
2022/04/16 09:58:55;;;;;;;5.53;4.55;;;13.70;99.90;;;;;;5112729;28;20027;-74
2022/04/16 10:01:24;;;;;;;5.43;4.20;;;14.00;99.90;;;;;;5109315;28;20032;-74
2022/04/16 10:03:54;;;;;;;5.93;3.88;;;14.30;99.90;;;;;;5111778;28;20035;-74
2022/04/16 10:06:21;;;;;;;5.28;4.78;;;14.20;99.90;;;;;;5111517;28;20039;-74
2022/04/16 10:08:49;;;;;;;5.13;4.00;;;14.30;99.90;;;;;;5112007;28;20430;-74
2022/04/16 10:11:41;;;;;;;4.28;3.88;;;14.40;99.90;;;;;;5110650;28;20026;-74
2022/04/16 10:14:13;;;;;;;4.53;3.80;;;14.10;99.90;;;;;;5110807;28;20052;-75
2022/04/16 10:17:09;;;;;;;4.90;3.97;;;14.40;99.90;;;;;;5110487;28;20028;-75
2022/04/16 10:19:40;;;;;;;6.53;4.50;;;14.80;99.90;;;;;;5108585;28;20032;-74
2022/04/16 10:22:06;;;;;;;7.70;4.10;;;14.70;99.90;;;;;;5111434;28;20100;-74
2022/04/16 10:24:32;;;;;;;5.68;4.15;;;15.00;99.90;;;;;;5111872;28;20028;-74
2022/04/16 10:27:08;;;;;;;4.75;3.97;;;14.90;99.90;;;;;;5110458;28;20020;-74
2022/04/16 10:29:37;;;;;;;3.90;3.47;;;15.40;99.90;;;;;;5112432;28;20020;-74
2022/04/16 10:32:15;;;;;;;7.72;5.03;;;15.40;99.90;;;;;;5111067;28;20023;-74
2022/04/16 10:34:40;;;;;;;6.38;4.28;;;15.50;99.90;;;;;;5115076;28;20050;-74
2022/04/16 10:37:07;;;;;;;4.60;3.58;;;15.00;99.90;;;;;;5114766;28;20023;-75
2022/04/16 10:39:35;;;;;;;4.50;4.00;;;15.50;99.90;;;;;;5114325;28;20024;-74
2022/04/16 10:42:03;;;;;;;5.05;4.10;;;15.80;96.00;;;;;;5114117;28;20547;-74
2022/04/16 10:44:43;;;;;;;6.35;4.47;;;15.80;97.60;;;;;;5115866;28;20031;-74
2022/04/16 10:47:12;;;;;;;3.90;3.33;;;16.10;95.50;;;;;;5115948;28;20038;-74
2022/04/16 10:49:40;;;;;;;;;;;16.80;90.90;;;;;;5113595;28;20032;-74
2022/04/16 10:52:18;;;;;;;4.15;3.20;;;16.80;85.60;;;;;;5115160;28;19907;-75
2022/04/16 10:54:47;;;;;;;4.38;3.50;;;17.80;81.50;;;;;;5115048;28;20099;-74
2022/04/16 10:57:21;;;;;;;4.07;3.22;;;17.90;78.40;;;;;;5113866;28;20468;-76
2022/04/16 10:59:47;;;;;;;4.55;3.65;;;18.50;77.00;;;;;;5112388;28;20016;-74
2022/04/16 11:02:21;;;;;;;4.00;3.45;;;18.50;72.30;;;;;;5115704;28;20028;-74
2022/04/16 11:05:05;;;;;;;4.80;2.97;;;17.30;74.40;;;;;;5114856;28;20031;-74
2022/04/16 11:07:36;;;;;;;4.20;3.05;;;17.40;76.60;;;;;;5114812;28;20024;-74
2022/04/16 11:10:10;;;;;;;7.68;3.80;;;17.30;74.30;;;;;;5114069;28;20015;-74
2022/04/16 11:12:40;;;;;;;5.82;3.22;;;17.50;74.60;;;;;;5114897;28;20044;-75
2022/04/16 11:15:19;;;;;;;4.10;3.25;;;17.10;73.80;;;;;;5116819;28;20028;-74
2022/04/16 11:17:45;;;;;;;2.90;2.70;;;17.10;76.50;;;;;;5115235;28;20047;-74
2022/04/16 11:20:10;;;;;;;4.13;3.50;;;16.90;76.10;;;;;;5114504;28;20109;-74
2022/04/16 11:22:38;;;;;;;3.95;2.90;;;16.20;76.00;;;;;;5114783;28;20047;-74
2022/04/16 11:25:08;;;;;;;4.88;3.33;;;16.00;78.50;;;;;;5114077;28;20392;-74
2022/04/16 11:35:59;;;;;;;4.30;3.37;;;17.20;76.40;;;;;;5115252;28;20073;-74
2022/04/16 11:38:29;;;;;;;3.25;2.70;;;18.10;73.20;;;;;;5114225;28;20024;-74
2022/04/16 11:41:05;;;;;;;3.13;2.35;;;17.40;69.50;;;;;;5111509;28;20027;-74
2022/04/16 11:43:32;;;;;;;2.90;2.00;;;17.40;70.20;;;;;;5113202;28;20423;-74
2022/04/16 11:46:01;;;;;;;3.47;2.28;;;17.10;72.10;;;;;;5114370;28;20015;-74
2022/04/16 11:48:27;;;;;;;2.20;2.00;;;17.10;72.10;;;;;;5112197;28;20035;-73
2022/04/16 11:50:53;;;;;;;3.63;2.33;;;17.80;68.40;;;;;;5113065;28;20016;-73
2022/04/16 11:53:19;;;;;;;1.95;1.83;;;17.80;69.50;;;;;;5113214;28;20068;-74
2022/04/16 11:55:52;;;;;;;2.28;2.03;;;17.20;68.80;;;;;;5113130;28;20027;-74
2022/04/16 11:58:26;;;;;;;3.13;2.45;;;17.00;70.00;;;;;;5112996;28;20076;-74
2022/04/16 12:00:55;;;;;;;2.05;1.80;;;16.70;69.10;;;;;;5112655;28;20076;-74
2022/04/16 12:03:41;;;;;;;1.75;1.40;;;16.80;73.10;;;;;;5114444;28;20039;-74
2022/04/16 12:06:09;;;;;;;4.05;1.98;;;17.10;68.90;;;;;;5112882;28;20028;-74
2022/04/16 12:08:34;;;;;;;2.80;1.60;;;17.00;67.70;;;;;;5113061;28;20073;-74
2022/04/16 12:11:02;;;;;;;3.30;1.77;;;18.10;66.50;;;;;;5110963;28;20519;-74
2022/04/16 12:13:40;;;;;;;5.18;1.83;;;17.90;64.90;;;;;;5111737;28;20156;-74
2022/04/16 12:16:11;;;;;;;10.40;3.55;;;17.60;65.10;;;;;;5112632;28;20373;-74
2022/04/16 12:18:38;;;;;;;10.23;3.92;;;17.50;66.10;;;;;;5112056;28;20023;-74
2022/04/16 12:21:09;;;;;;;2.95;2.00;;;17.10;68.80;;;;;;5113155;28;20015;-74
2022/04/16 12:23:38;;;;;;;7.28;2.75;;;17.00;68.70;;;;;;5114782;28;20404;-74
2022/04/16 12:26:09;;;;;;;4.38;1.95;;;17.30;69.60;;;;;;5113079;28;20161;-74
2022/04/16 12:28:43;;;;;;;3.72;2.08;;;17.10;68.50;;;;;;5113742;28;20418;-74
2022/04/16 12:31:10;;;;;;;3.05;2.13;;;17.20;68.70;;;;;;5112816;28;20665;-74
2022/04/16 12:33:36;;;;;;;2.92;2.00;;;17.10;67.20;;;;;;5112304;28;20039;-74
2022/04/16 12:36:02;;;;;;;1.98;1.58;;;17.40;67.00;;;;;;5112893;28;20085;-74
2022/04/16 12:38:28;;;;;;;1.65;1.30;;;17.80;65.90;;;;;;5113337;28;20023;-73
2022/04/16 12:41:08;;;;;;;1.60;1.50;;;18.20;65.00;;;;;;5114601;28;20024;-74
2022/04/16 12:43:34;;;;;;;4.82;1.30;;;19.00;62.70;;;;;;5113885;28;20032;-76
2022/04/16 12:45:59;;;;;;;1.52;1.40;;;19.40;61.80;;;;;;5110410;28;20097;-83
2022/04/16 12:48:25;;;;;;;1.70;1.17;;;19.80;62.60;;;;;;5110380;28;20033;-75
2022/04/16 12:50:51;;;;;;;4.82;1.80;;;19.40;60.50;;;;;;5110955;27;20464;-74
2022/04/16 12:53:17;;;;;;;1.08;1.00;;;18.50;61.20;;;;;;5110668;28;20024;-74
2022/04/16 12:55:42;;;;;;;6.28;3.08;;;18.10;62.90;;;;;;5110620;28;20019;-74
2022/04/16 12:58:08;;;;;;;2.90;2.33;;;18.30;63.80;;;;;;5111826;28;20480;-74
2022/04/16 13:00:34;;;;;;;1.95;1.40;;;18.40;62.60;;;;;;5112034;28;20380;-74
2022/04/16 13:03:00;;;;;;;3.03;1.38;;;19.30;61.90;;;;;;5113485;28;20023;-74
2022/04/16 13:05:29;;;;;;;3.15;1.50;;;18.30;62.00;;;;;;5112022;28;20028;-74
2022/04/16 13:07:58;;;;;;;4.10;1.83;;;18.80;61.70;;;;;;5109745;28;20024;-74
2022/04/16 13:10:23;;;;;;;2.08;1.88;;;19.40;59.20;;;;;;5111875;28;20035;-74
2022/04/16 13:12:49;;;;;;;8.05;3.35;;;19.70;57.70;;;;;;5110900;28;20047;-79
2022/04/16 13:15:15;;;;;;;1.35;1.25;;;19.90;57.40;;;;;;5111669;28;20035;-74
2022/04/16 13:17:42;;;;;;;2.38;1.60;;;20.20;56.40;;;;;;5112334;28;20039;-74
2022/04/16 13:20:12;;;;;;;1.83;1.58;;;19.70;56.50;;;;;;5110718;28;20434;-75